Querencia, Brazil
Current Conditions -  °F | °C
As of 11:00 AM on Thursday 18 Dec 2014 (Local Time) from SBBW Reporting Station
Thunderstorm Thunderstorm  
Wind Chill: 84°   Ceiling: 9000
Heat Index: 92°   Visibility: 6mi
Dew Point: 75°   Wind: 2mph
Humidity: 74%   Direction: 40°NE
Pressure: 29.91"   Gusts: NA
Location:  12.6°S, 52.2°W
Report Text: SBBW 181400Z 04002KT 9999 TS VCSH FEW020 FEW025CB BKN090 29/24 Q1013
Loading
Personal Weather Stations






























Interactive Weather Map New forecast layout! Learn more

10-Day Weather Forecast

Advertisements
Track Severe Weather on mobile